createdAt,value
2023-06-04T00:02:23.373Z,102315.22
2023-06-04T00:04:50.798Z,102256.88
2023-06-04T00:07:17.901Z,102319.41
2023-06-04T00:09:47.584Z,102320.25
2023-06-04T00:12:15.549Z,102310.22
2023-06-04T00:14:42.987Z,102300.78
2023-06-04T00:17:10.816Z,102248.25
2023-06-04T00:19:41.773Z,102303.59
2023-06-04T00:22:09.489Z,102291.38
2023-06-04T00:24:39.064Z,102306.94
2023-06-04T00:27:07.112Z,102298.31
2023-06-04T00:29:34.088Z,102293.31
2023-06-04T00:32:01.117Z,102299.72
2023-06-04T00:34:28.744Z,102292.22
2023-06-04T00:36:55.996Z,102300.53
2023-06-04T00:39:23.093Z,102303.91
2023-06-04T00:41:50.408Z,102298.59
2023-06-04T00:44:17.534Z,102303.06
2023-06-04T00:46:46.794Z,102298.59
2023-06-04T00:49:14.021Z,102288.59
2023-06-04T00:51:41.667Z,102300.84
2023-06-04T00:54:12.986Z,102298.63
2023-06-04T00:56:41.252Z,102294.72
2023-06-04T00:59:10.942Z,102299.16
2023-06-04T01:02:00.148Z,102295.25
2023-06-04T01:04:56.639Z,102296.09
2023-06-04T01:07:24.648Z,102295.19
2023-06-04T01:09:52.528Z,102289.66
2023-06-04T01:12:19.615Z,102294.63
2023-06-04T01:14:46.874Z,102297.94
2023-06-04T01:17:42.248Z,102295.44
2023-06-04T01:20:20.008Z,102296.28
2023-06-04T01:23:01.555Z,102294.91
2023-06-04T01:25:31.273Z,102296.22
2023-06-04T01:27:58.942Z,102299.81
2023-06-04T01:30:29.636Z,102296.78
2023-06-04T01:32:57.297Z,102302.03
2023-06-04T01:35:28.248Z,102283.34
2023-06-04T01:37:57.197Z,102301.63
2023-06-04T01:40:25.090Z,102293.97
2023-06-04T01:42:52.196Z,102305.25
2023-06-04T01:45:19.320Z,102307.22
2023-06-04T01:47:46.452Z,102301.34
2023-06-04T01:50:13.897Z,102307.38
2023-06-04T01:52:42.212Z,102310.97
2023-06-04T01:55:13.390Z,102320.38
2023-06-04T01:57:41.125Z,102303.69
2023-06-04T02:00:11.635Z,102327.81
2023-06-04T02:02:39.452Z,102324.25
2023-06-04T02:05:09.876Z,102319.81
2023-06-04T02:07:42.670Z,102317.09
2023-06-04T02:10:14.435Z,102319.22
2023-06-04T02:12:42.827Z,102310.78
2023-06-04T02:15:12.406Z,102295.84
2023-06-04T02:17:43.987Z,102312.16
2023-06-04T02:20:11.330Z,102310.34
2023-06-04T02:22:38.786Z,102312.81
2023-06-04T02:25:06.940Z,102316.78
2023-06-04T02:27:33.998Z,102319.25
2023-06-04T02:30:01.108Z,102323.03
2023-06-04T02:32:28.153Z,102310.34
2023-06-04T02:34:55.889Z,102325.66
2023-06-04T02:37:23.862Z,102305.22
2023-06-04T02:39:50.790Z,102316.03
2023-06-04T02:42:20.898Z,102314.09
2023-06-04T02:44:47.809Z,102311.81
2023-06-04T02:47:15.035Z,102315.28
2023-06-04T02:49:42.095Z,102317.13
2023-06-04T02:52:09.187Z,102312.69
2023-06-04T02:54:38.908Z,102322.19
2023-06-04T02:57:06.374Z,102306.72
2023-06-04T02:59:33.332Z,102317.81
2023-06-04T03:02:00.395Z,102320.78
2023-06-04T03:04:27.777Z,102325.16
2023-06-04T03:06:59.138Z,102320.50
2023-06-04T03:09:26.599Z,102317.06
2023-06-04T03:11:55.126Z,102321.22
2023-06-04T03:14:22.496Z,102314.91
2023-06-04T03:16:50.467Z,102317.19
2023-06-04T03:19:18.533Z,102311.91
2023-06-04T03:21:46.238Z,102309.03
2023-06-04T03:24:13.536Z,102315.81
2023-06-04T03:26:41.095Z,102317.16
2023-06-04T03:29:08.267Z,102310.97
2023-06-04T03:31:35.428Z,102311.72
2023-06-04T03:34:02.555Z,102315.00
2023-06-04T03:36:33.050Z,102317.16
2023-06-04T03:39:00.192Z,102321.16
2023-06-04T03:41:27.472Z,102315.59
2023-06-04T03:43:54.714Z,102309.41
2023-06-04T03:46:21.818Z,102308.84
2023-06-04T03:48:48.744Z,102319.41
2023-06-04T03:51:15.950Z,102324.47
2023-06-04T03:53:43.075Z,102308.94
2023-06-04T03:56:10.040Z,102318.72
2023-06-04T03:58:37.752Z,102324.31
2023-06-04T04:01:06.586Z,102305.72
2023-06-04T04:03:36.297Z,102325.47
2023-06-04T04:06:03.601Z,102326.59
2023-06-04T04:08:32.746Z,102327.81
2023-06-04T04:10:59.612Z,102328.09
2023-06-04T04:13:26.694Z,102316.66
2023-06-04T04:15:53.972Z,102328.59
2023-06-04T04:18:22.009Z,102315.63
2023-06-04T04:20:48.965Z,102312.59
2023-06-04T04:23:16.174Z,102313.00
2023-06-04T04:25:45.272Z,102310.47
2023-06-04T04:28:12.261Z,102303.41
2023-06-04T04:30:40.351Z,102301.03
2023-06-04T04:33:07.842Z,102297.03
2023-06-04T04:35:35.771Z,102295.88
2023-06-04T04:38:05.987Z,102300.88
2023-06-04T04:40:32.974Z,102291.94
2023-06-04T04:43:00.089Z,102298.38
2023-06-04T04:45:26.946Z,102296.06
2023-06-04T04:47:54.135Z,102292.19
2023-06-04T04:50:21.668Z,102295.72
2023-06-04T04:52:50.950Z,102298.63
2023-06-04T04:55:18.131Z,102290.06
2023-06-04T04:57:45.244Z,102297.66
2023-06-04T05:00:12.943Z,102283.34
2023-06-04T05:02:40.260Z,102288.56
2023-06-04T05:05:07.591Z,102279.78
2023-06-04T05:07:34.528Z,102289.28
2023-06-04T05:10:01.644Z,102288.41
2023-06-04T05:12:31.242Z,102285.22
2023-06-04T05:15:01.095Z,102297.22
2023-06-04T05:17:31.804Z,102288.03
2023-06-04T05:20:05.417Z,102287.78
2023-06-04T05:22:33.609Z,102288.94
2023-06-04T05:25:03.337Z,102290.81
2023-06-04T05:27:30.493Z,102299.47
2023-06-04T05:29:57.912Z,102293.09
2023-06-04T05:32:25.238Z,102295.97
2023-06-04T05:34:52.134Z,102292.66
2023-06-04T05:37:19.089Z,102295.94
2023-06-04T05:39:46.450Z,102305.38
2023-06-04T05:42:14.962Z,102294.25
2023-06-04T05:44:42.103Z,102293.38
2023-06-04T05:47:09.292Z,102293.00
2023-06-04T05:49:36.230Z,102291.63
2023-06-04T05:52:03.103Z,102292.88
2023-06-04T05:54:31.178Z,102300.22
2023-06-04T05:56:58.358Z,102298.84
2023-06-04T05:59:25.205Z,102301.53
2023-06-04T06:01:52.209Z,102286.66
2023-06-04T06:04:19.099Z,102300.50
2023-06-04T06:06:49.752Z,102292.16
2023-06-04T06:09:20.573Z,102304.88
2023-06-04T06:11:47.540Z,102302.38
2023-06-04T06:14:14.518Z,102303.78
2023-06-04T06:16:42.103Z,102281.09
2023-06-04T06:19:08.933Z,102296.09
2023-06-04T06:21:36.010Z,102298.53
2023-06-04T06:24:03.315Z,102294.69
2023-06-04T06:26:31.285Z,102296.94
2023-06-04T06:28:58.140Z,102303.41
2023-06-04T06:31:25.225Z,102300.69
2023-06-04T06:33:52.381Z,102300.41
2023-06-04T06:36:20.191Z,102307.00
2023-06-04T06:38:47.677Z,102309.06
2023-06-04T06:41:14.697Z,102293.66
2023-06-04T06:43:41.731Z,102295.56
2023-06-04T06:46:08.705Z,102302.41
2023-06-04T06:48:35.725Z,102308.56
2023-06-04T06:51:02.509Z,102309.84
2023-06-04T06:53:29.403Z,102306.91
2023-06-04T06:55:56.587Z,102307.06
2023-06-04T06:58:24.597Z,102307.34
2023-06-04T07:00:51.646Z,102307.50
2023-06-04T07:03:18.631Z,102312.44
2023-06-04T07:05:48.754Z,102298.50
2023-06-04T07:08:15.823Z,102312.88
2023-06-04T07:10:42.706Z,102313.19
2023-06-04T07:13:09.617Z,102300.97
2023-06-04T07:15:36.773Z,102309.97
2023-06-04T07:18:03.991Z,102298.44
2023-06-04T07:20:32.101Z,102300.28
2023-06-04T07:22:58.892Z,102297.91
2023-06-04T07:25:26.944Z,102291.66
2023-06-04T07:27:54.356Z,102302.53
2023-06-04T07:30:21.527Z,102293.91
2023-06-04T07:32:51.818Z,102292.63
2023-06-04T07:35:19.023Z,102297.81
2023-06-04T07:37:50.451Z,102293.47
2023-06-04T07:40:19.102Z,102291.41
2023-06-04T07:42:48.469Z,102290.00
2023-06-04T07:45:16.699Z,102290.28
2023-06-04T07:47:44.833Z,102278.47
2023-06-04T07:50:12.065Z,102283.44
2023-06-04T07:52:39.112Z,102283.94
2023-06-04T07:55:06.648Z,102282.63
2023-06-04T07:57:33.660Z,102280.38
2023-06-04T08:00:01.153Z,102281.91
2023-06-04T08:02:28.183Z,102283.69
2023-06-04T08:04:55.519Z,102282.06
2023-06-04T08:07:22.629Z,102278.91
2023-06-04T08:09:50.764Z,102280.13
2023-06-04T08:12:17.958Z,102274.47
2023-06-04T08:14:45.090Z,102287.78
2023-06-04T08:17:12.118Z,102277.56
2023-06-04T08:19:38.991Z,102279.47
2023-06-04T08:22:07.201Z,102283.69
2023-06-04T08:24:34.103Z,102279.47
2023-06-04T08:27:01.099Z,102277.31
2023-06-04T08:29:28.075Z,102271.53
2023-06-04T08:31:54.932Z,102273.81
2023-06-04T08:34:22.040Z,102281.56
2023-06-04T08:36:49.325Z,102281.72
2023-06-04T08:39:16.246Z,102288.28
2023-06-04T08:41:53.716Z,102276.38
2023-06-04T08:44:20.740Z,102278.97
2023-06-04T08:46:54.629Z,102285.16
2023-06-04T08:49:26.418Z,102275.56
2023-06-04T08:51:53.334Z,102285.97
2023-06-04T08:54:20.707Z,102277.78
2023-06-04T08:56:50.178Z,102288.19
2023-06-04T08:59:17.836Z,102280.34
2023-06-04T09:01:46.422Z,102284.88
2023-06-04T09:04:13.774Z,102279.66
2023-06-04T09:06:43.664Z,102273.34
2023-06-04T09:09:13.921Z,102273.44
2023-06-04T09:11:56.062Z,102288.75
2023-06-04T09:14:25.771Z,102286.63
2023-06-04T09:16:54.963Z,102286.63
2023-06-04T09:19:22.683Z,102283.59
2023-06-04T09:21:53.795Z,102292.59
2023-06-04T09:24:22.194Z,102292.47
2023-06-04T09:26:50.234Z,102287.84
2023-06-04T09:29:18.067Z,102292.72
2023-06-04T09:31:58.401Z,102299.13
2023-06-04T09:34:30.101Z,102299.88
2023-06-04T09:36:58.013Z,102302.59
2023-06-04T09:39:25.763Z,102291.97
2023-06-04T09:42:03.028Z,102294.22
2023-06-04T09:44:31.087Z,102289.38
2023-06-04T09:46:59.273Z,102293.91
2023-06-04T09:49:26.521Z,102291.47
2023-06-04T09:51:53.942Z,102282.97
2023-06-04T09:54:21.144Z,102288.19
2023-06-04T09:56:51.002Z,102279.81
2023-06-04T09:59:19.246Z,102278.69
2023-06-04T10:01:46.780Z,102253.06
2023-06-04T10:04:14.975Z,102274.41
2023-06-04T10:06:43.056Z,102281.88
2023-06-04T10:09:10.602Z,102277.50
2023-06-04T10:11:42.881Z,102281.97
2023-06-04T10:14:26.689Z,102270.19
2023-06-04T10:16:54.817Z,102276.13
2023-06-04T10:19:21.987Z,102276.78
2023-06-04T10:21:49.648Z,102275.53
2023-06-04T10:24:17.450Z,102274.56
2023-06-04T10:26:44.980Z,102276.75
2023-06-04T10:29:13.915Z,102270.69
2023-06-04T10:31:43.225Z,102271.41
2023-06-04T10:34:10.375Z,102264.84
2023-06-04T10:36:47.174Z,102269.00
2023-06-04T10:39:14.503Z,102267.66
2023-06-04T10:41:41.722Z,102270.72
2023-06-04T10:44:08.965Z,102269.63
2023-06-04T10:46:44.314Z,102255.94
2023-06-04T10:49:13.607Z,102261.47
2023-06-04T10:51:40.890Z,102262.78
2023-06-04T10:54:08.576Z,102271.13
2023-06-04T10:56:37.009Z,102278.47
2023-06-04T10:59:15.955Z,102275.38
2023-06-04T11:01:43.149Z,102274.97
2023-06-04T11:04:26.662Z,102273.78
2023-06-04T11:07:11.018Z,102268.72
2023-06-04T11:09:39.781Z,102266.50
2023-06-04T11:12:17.807Z,102268.75
2023-06-04T11:14:58.207Z,102273.06
2023-06-04T11:17:25.226Z,102261.59
2023-06-04T11:19:56.827Z,102268.16
2023-06-04T11:22:24.892Z,102274.09
2023-06-04T11:25:00.463Z,102262.47
2023-06-04T11:27:36.176Z,102261.59
2023-06-04T11:30:04.786Z,102264.47
2023-06-04T11:32:32.440Z,102265.78
2023-06-04T11:35:07.502Z,102257.56
2023-06-04T11:37:35.314Z,102261.72
2023-06-04T11:40:03.122Z,102262.69
2023-06-04T11:42:31.288Z,102261.16
2023-06-04T11:44:58.743Z,102258.66
2023-06-04T11:47:26.507Z,102266.19
2023-06-04T11:49:57.909Z,102265.47
2023-06-04T11:52:25.538Z,102270.13
2023-06-04T11:54:52.800Z,102255.88
2023-06-04T11:57:20.347Z,102278.13
2023-06-04T11:59:47.632Z,102272.50
2023-06-04T12:02:14.765Z,102274.00
2023-06-04T12:04:41.821Z,102278.34
2023-06-04T12:07:10.341Z,102282.94
2023-06-04T12:09:39.705Z,102282.81
2023-06-04T12:12:09.050Z,102270.31
2023-06-04T12:14:36.181Z,102281.28
2023-06-04T12:17:08.064Z,102288.41
2023-06-04T12:19:48.225Z,102286.47
2023-06-04T12:22:15.174Z,102290.59
2023-06-04T12:24:50.788Z,102270.91
2023-06-04T12:27:17.900Z,102286.50
2023-06-04T12:30:02.075Z,102277.09
2023-06-04T12:32:29.485Z,102287.34
2023-06-04T12:34:56.976Z,102280.00
2023-06-04T12:37:26.932Z,102278.19
2023-06-04T12:39:54.895Z,102268.91
2023-06-04T12:42:22.687Z,102278.34
2023-06-04T12:44:49.849Z,102277.91
2023-06-04T12:47:18.328Z,102275.50
2023-06-04T12:49:46.361Z,102263.59
2023-06-04T12:52:15.531Z,102269.75
2023-06-04T12:54:43.676Z,102266.91
2023-06-04T12:57:10.943Z,102277.13
2023-06-04T12:59:40.394Z,102264.84
2023-06-04T13:02:07.746Z,102274.44
2023-06-04T13:04:34.826Z,102276.13
2023-06-04T13:07:01.972Z,102285.19
2023-06-04T13:09:33.919Z,102283.91
2023-06-04T13:12:00.951Z,102277.47
2023-06-04T13:14:28.064Z,102274.66
2023-06-04T13:16:55.032Z,102271.38
2023-06-04T13:19:22.127Z,102276.72
2023-06-04T13:21:49.134Z,102255.75
2023-06-04T13:24:16.937Z,102281.47
2023-06-04T13:26:44.040Z,102283.19
2023-06-04T13:29:11.421Z,102274.47
2023-06-04T13:31:40.531Z,102279.06
2023-06-04T13:34:22.889Z,102272.97
2023-06-04T13:36:53.822Z,102279.13
2023-06-04T13:39:21.048Z,102279.06
2023-06-04T13:41:48.117Z,102272.47
2023-06-04T13:44:15.224Z,102281.41
2023-06-04T13:46:45.008Z,102272.47
2023-06-04T13:49:11.730Z,102271.03
2023-06-04T13:51:38.503Z,102269.84
2023-06-04T13:54:06.015Z,102274.59
2023-06-04T13:56:33.101Z,102231.66
2023-06-04T13:59:00.039Z,102265.88
2023-06-04T14:01:27.017Z,102269.19
2023-06-04T14:03:54.540Z,102265.47
2023-06-04T14:06:21.678Z,102259.69
2023-06-04T14:08:48.498Z,102268.00
2023-06-04T14:11:15.569Z,102250.88
2023-06-04T14:13:46.427Z,102258.16
2023-06-04T14:16:13.372Z,102251.47
2023-06-04T14:18:43.215Z,102253.91
2023-06-04T14:21:10.339Z,102248.19
2023-06-04T14:23:37.486Z,102259.63
2023-06-04T14:26:04.430Z,102251.31
2023-06-04T14:28:31.384Z,102264.31
2023-06-04T14:30:59.703Z,102257.88
2023-06-04T14:33:26.834Z,102249.78
2023-06-04T14:35:53.855Z,102257.56
2023-06-04T14:38:20.959Z,102260.09
2023-06-04T14:40:47.990Z,102256.81
2023-06-04T14:43:15.036Z,102259.28
2023-06-04T14:45:42.178Z,102247.78
2023-06-04T14:50:39.208Z,102248.75
2023-06-04T14:53:08.788Z,102256.31
2023-06-04T14:55:36.156Z,102254.84
2023-06-04T14:58:04.417Z,102249.56
2023-06-04T15:00:31.808Z,102248.41
2023-06-04T15:02:59.570Z,102241.22
2023-06-04T15:05:27.079Z,102248.50
2023-06-04T15:07:54.186Z,102250.59
2023-06-04T15:10:21.397Z,102255.13
2023-06-04T15:12:48.406Z,102264.31
2023-06-04T15:15:15.539Z,102258.59
2023-06-04T15:17:43.733Z,102259.47
2023-06-04T15:20:12.400Z,102253.53
2023-06-04T15:22:39.457Z,102248.47
2023-06-04T15:25:07.308Z,102256.69
2023-06-04T15:27:34.593Z,102247.38
2023-06-04T15:30:01.771Z,102241.97
2023-06-04T15:32:29.103Z,102224.94
2023-06-04T15:34:56.363Z,102250.41
2023-06-04T15:37:23.370Z,102242.78
2023-06-04T15:39:50.396Z,102250.91
2023-06-04T15:42:17.610Z,102257.38
2023-06-04T15:44:44.850Z,102245.03
2023-06-04T15:47:12.074Z,102258.34
2023-06-04T15:49:39.171Z,102245.38
2023-06-04T15:52:06.562Z,102257.78
2023-06-04T15:54:45.151Z,102257.97
2023-06-04T15:57:13.487Z,102254.69
2023-06-04T15:59:40.721Z,102263.41
2023-06-04T16:02:07.769Z,102261.28
2023-06-04T16:04:35.013Z,102263.31
2023-06-04T16:07:02.841Z,102261.22
2023-06-04T16:09:30.424Z,102259.03
2023-06-04T16:11:57.789Z,102268.59
2023-06-04T16:14:24.928Z,102263.56
2023-06-04T16:16:52.366Z,102266.22
2023-06-04T16:19:19.584Z,102258.22
2023-06-04T16:21:46.807Z,102264.84
2023-06-04T16:24:14.044Z,102260.19
2023-06-04T16:26:41.594Z,102258.00
2023-06-04T16:29:08.916Z,102252.13
2023-06-04T16:31:36.524Z,102240.09
2023-06-04T16:34:03.860Z,102244.75
2023-06-04T16:36:32.565Z,102237.53
2023-06-04T16:39:01.405Z,102239.09
2023-06-04T16:41:28.830Z,102237.78
2023-06-04T16:43:56.217Z,102236.06
2023-06-04T16:46:25.438Z,102244.16
2023-06-04T16:48:52.862Z,102244.25
2023-06-04T16:51:20.082Z,102243.47
2023-06-04T16:53:47.121Z,102236.97
2023-06-04T16:56:14.530Z,102242.38
2023-06-04T16:58:41.989Z,102238.94
2023-06-04T17:01:11.679Z,102245.72
2023-06-04T17:03:39.438Z,102248.06
2023-06-04T17:06:06.990Z,102230.03
2023-06-04T17:08:34.188Z,102245.69
2023-06-04T17:11:01.424Z,102242.63
2023-06-04T17:13:28.793Z,102254.13
2023-06-04T17:15:56.327Z,102252.22
2023-06-04T17:18:23.587Z,102246.94
2023-06-04T17:20:50.783Z,102249.53
2023-06-04T17:23:22.894Z,102249.81
2023-06-04T17:25:50.842Z,102250.16
2023-06-04T17:28:18.178Z,102249.56
2023-06-04T17:30:45.838Z,102249.41
2023-06-04T17:33:12.866Z,102244.94
2023-06-04T17:35:39.952Z,102240.31
2023-06-04T17:38:07.129Z,102245.28
2023-06-04T17:40:34.367Z,102249.50
2023-06-04T17:43:01.565Z,102249.81
2023-06-04T17:45:28.675Z,102237.94
2023-06-04T17:47:55.958Z,102245.97
2023-06-04T17:50:23.055Z,102252.88
2023-06-04T17:52:51.888Z,102254.22
2023-06-04T17:55:19.350Z,102258.09
2023-06-04T17:57:46.410Z,102255.00
2023-06-04T18:00:15.893Z,102263.13
2023-06-04T18:02:42.991Z,102257.28
2023-06-04T18:05:10.673Z,102258.88
2023-06-04T18:07:40.235Z,102261.88
2023-06-04T18:10:08.008Z,102255.94
2023-06-04T18:12:36.937Z,102238.28
2023-06-04T18:15:06.172Z,102260.56
2023-06-04T18:17:33.684Z,102259.56
2023-06-04T18:20:00.710Z,102263.28
2023-06-04T18:22:27.905Z,102262.31
2023-06-04T18:24:54.926Z,102265.00
2023-06-04T18:27:22.639Z,102266.34
2023-06-04T18:29:50.486Z,102265.88
2023-06-04T18:32:18.349Z,102269.88
2023-06-04T18:34:46.174Z,102262.94
2023-06-04T18:37:13.261Z,102272.00
2023-06-04T18:39:41.327Z,102270.38
2023-06-04T18:42:18.155Z,102264.94
2023-06-04T18:44:49.116Z,102270.56
2023-06-04T18:47:16.279Z,102272.16
2023-06-04T18:49:43.310Z,102273.31
2023-06-04T18:52:10.197Z,102278.44
2023-06-04T18:54:37.059Z,102275.75
2023-06-04T18:57:04.726Z,102275.84
2023-06-04T18:59:31.697Z,102275.41
2023-06-04T19:01:58.750Z,102275.13
2023-06-04T19:04:25.562Z,102271.25
2023-06-04T19:06:52.680Z,102277.72
2023-06-04T19:09:19.782Z,102280.94
2023-06-04T19:11:46.697Z,102284.03
2023-06-04T19:14:13.858Z,102283.63
2023-06-04T19:16:41.085Z,102290.97
2023-06-04T19:19:10.073Z,102294.47
2023-06-04T19:21:38.690Z,102292.31
2023-06-04T19:24:07.033Z,102293.78
2023-06-04T19:26:35.807Z,102300.16
2023-06-04T19:29:02.677Z,102297.66
2023-06-04T19:31:29.566Z,102301.53
2023-06-04T19:33:56.818Z,102280.34
2023-06-04T19:36:23.777Z,102305.28
2023-06-04T19:38:50.912Z,102303.31
2023-06-04T19:41:20.679Z,102306.31
2023-06-04T19:43:47.709Z,102308.88
2023-06-04T19:46:14.775Z,102310.66
2023-06-04T19:48:41.818Z,102313.84
2023-06-04T19:51:08.930Z,102319.47
2023-06-04T19:53:37.316Z,102321.44
2023-06-04T19:56:04.324Z,102316.13
2023-06-04T19:58:31.728Z,102317.63
2023-06-04T20:01:00.974Z,102313.63
2023-06-04T20:03:31.737Z,102317.13
2023-06-04T20:05:58.979Z,102297.09
2023-06-04T20:08:25.912Z,102324.25
2023-06-04T20:10:53.390Z,102324.41
2023-06-04T20:13:20.652Z,102322.97
2023-06-04T20:15:47.867Z,102335.34
2023-06-04T20:18:15.039Z,102316.69
2023-06-04T20:20:42.554Z,102316.50
2023-06-04T20:23:09.564Z,102328.00
2023-06-04T20:25:36.546Z,102323.44
2023-06-04T20:28:03.429Z,102326.34
2023-06-04T20:30:31.995Z,102327.63
2023-06-04T20:32:59.029Z,102334.25
2023-06-04T20:35:26.129Z,102341.19
2023-06-04T20:37:55.245Z,102339.91
2023-06-04T20:40:22.854Z,102341.88
2023-06-04T20:42:50.173Z,102349.06
2023-06-04T20:45:17.046Z,102339.50
2023-06-04T20:47:44.261Z,102352.13
2023-06-04T20:50:11.788Z,102357.78
2023-06-04T20:52:40.342Z,102361.75
2023-06-04T20:55:08.307Z,102369.09
2023-06-04T20:57:35.259Z,102365.78
2023-06-04T21:00:04.273Z,102371.75
2023-06-04T21:02:31.389Z,102370.41
2023-06-04T21:04:58.720Z,102368.78
2023-06-04T21:07:25.657Z,102367.94
2023-06-04T21:09:52.645Z,102372.72
2023-06-04T21:12:19.687Z,102348.72
2023-06-04T21:14:46.923Z,102363.22
2023-06-04T21:17:13.909Z,102363.22
2023-06-04T21:19:41.102Z,102364.00
2023-06-04T21:22:08.041Z,102365.28
2023-06-04T21:24:35.256Z,102310.84
2023-06-04T21:27:02.064Z,102357.53
2023-06-04T21:29:28.817Z,102364.28
2023-06-04T21:31:55.887Z,102363.94
2023-06-04T21:34:22.977Z,102358.97
2023-06-04T21:36:50.113Z,102370.75
2023-06-04T21:39:17.136Z,102364.03
2023-06-04T21:41:44.248Z,102373.00
2023-06-04T21:44:11.140Z,102369.94
2023-06-04T21:46:38.497Z,102371.00
2023-06-04T21:49:05.591Z,102379.38
2023-06-04T21:51:32.504Z,102376.66
2023-06-04T21:53:59.603Z,102379.50
2023-06-04T21:56:28.136Z,102371.47
2023-06-04T21:58:55.071Z,102377.31
2023-06-04T22:01:22.128Z,102380.41
2023-06-04T22:03:49.000Z,102378.47
2023-06-04T22:06:16.068Z,102379.06
2023-06-04T22:08:43.421Z,102380.72
2023-06-04T22:11:10.469Z,102374.88
2023-06-04T22:13:38.645Z,102383.19
2023-06-04T22:16:07.031Z,102382.41
2023-06-04T22:18:48.125Z,102389.41
2023-06-04T22:21:20.808Z,102393.84
2023-06-04T22:23:47.893Z,102386.09
2023-06-04T22:26:24.974Z,102392.00
2023-06-04T22:29:01.688Z,102361.94
2023-06-04T22:31:28.862Z,102390.88
2023-06-04T22:33:56.220Z,102385.28
2023-06-04T22:36:23.186Z,102392.84
2023-06-04T22:38:50.162Z,102380.88
2023-06-04T22:41:17.029Z,102379.22
2023-06-04T22:43:44.124Z,102385.91
2023-06-04T22:46:11.419Z,102378.38
2023-06-04T22:48:38.253Z,102389.84
2023-06-04T22:51:06.735Z,102383.72
2023-06-04T22:53:34.242Z,102390.13
2023-06-04T22:56:02.823Z,102386.81
2023-06-04T22:58:29.888Z,102380.66
2023-06-04T23:00:58.413Z,102374.81
2023-06-04T23:03:26.700Z,102386.50
2023-06-04T23:05:53.927Z,102380.09
2023-06-04T23:08:21.074Z,102389.56
2023-06-04T23:10:48.149Z,102390.13
2023-06-04T23:13:15.796Z,102386.50
2023-06-04T23:15:43.072Z,102382.06
2023-06-04T23:18:10.309Z,102388.72
2023-06-04T23:20:37.196Z,102390.69
2023-06-04T23:23:04.366Z,102401.22
2023-06-04T23:25:31.337Z,102399.56
2023-06-04T23:27:58.278Z,102405.69
2023-06-04T23:30:25.309Z,102405.66
2023-06-04T23:32:52.326Z,102411.78
2023-06-04T23:35:19.312Z,102410.97
2023-06-04T23:37:46.747Z,102403.19
2023-06-04T23:40:13.943Z,102405.91
2023-06-04T23:42:41.097Z,102408.69
2023-06-04T23:45:08.469Z,102412.25
2023-06-04T23:47:35.444Z,102409.13
2023-06-04T23:50:02.584Z,102406.16
2023-06-04T23:52:29.433Z,102408.91
2023-06-04T23:54:56.812Z,102416.75
2023-06-04T23:57:23.741Z,102400.63
2023-06-04T23:59:50.749Z,102404.84
